createdAt,value
2018-06-19T00:02:15.773Z,19.47
2018-06-19T00:04:44.207Z,19.77
2018-06-19T00:07:12.539Z,20.93
2018-06-19T00:09:41.658Z,20.40
2018-06-19T00:12:10.096Z,21.43
2018-06-19T00:14:38.473Z,21.10
2018-06-19T00:17:06.947Z,21.73
2018-06-19T00:19:35.609Z,19.97
2018-06-19T00:22:04.718Z,19.70
2018-06-19T00:24:33.244Z,20.30
2018-06-19T00:27:01.605Z,21.37
2018-06-19T00:29:30.253Z,21.87
2018-06-19T00:31:58.633Z,22.17
2018-06-19T00:34:27.002Z,22.00
2018-06-19T00:36:55.376Z,21.30
2018-06-19T00:39:23.758Z,20.53
2018-06-19T00:41:52.109Z,20.07
2018-06-19T00:44:20.515Z,19.97
2018-06-19T00:46:48.869Z,19.93
2018-06-19T00:49:17.270Z,20.50
2018-06-19T00:51:45.672Z,20.67
2018-06-19T00:54:14.010Z,20.80
2018-06-19T00:56:48.344Z,20.67
2018-06-19T00:59:16.850Z,20.50
2018-06-19T01:01:45.289Z,21.40
2018-06-19T01:04:13.633Z,20.87
2018-06-19T01:06:42.018Z,20.73
2018-06-19T01:09:10.354Z,21.50
2018-06-19T01:11:38.715Z,20.60
2018-06-19T01:14:07.112Z,19.40
2018-06-19T01:16:35.592Z,20.13
2018-06-19T01:19:03.959Z,21.27
2018-06-19T01:21:32.313Z,20.10
2018-06-19T01:24:02.147Z,21.03
2018-06-19T01:26:30.602Z,20.60
2018-06-19T01:28:59.932Z,20.60
2018-06-19T01:31:28.286Z,20.73
2018-06-19T01:33:56.724Z,22.27
2018-06-19T01:36:25.067Z,21.73
2018-06-19T01:38:53.482Z,21.23
2018-06-19T01:41:21.961Z,21.60
2018-06-19T01:43:50.273Z,22.10
2018-06-19T01:46:18.718Z,22.33
2018-06-19T01:48:47.061Z,20.63
2018-06-19T01:51:15.411Z,22.93
2018-06-19T01:53:43.894Z,22.37
2018-06-19T01:56:12.334Z,23.33
2018-06-19T01:58:40.666Z,23.37
2018-06-19T02:01:09.782Z,21.77
2018-06-19T02:03:38.154Z,22.93
2018-06-19T02:06:06.603Z,22.17
2018-06-19T02:08:35.037Z,22.40
2018-06-19T02:11:03.414Z,22.23
2018-06-19T02:13:31.902Z,21.10
2018-06-19T02:16:00.386Z,22.80
2018-06-19T02:18:29.557Z,22.30
2018-06-19T02:20:57.958Z,21.10
2018-06-19T02:23:26.339Z,22.53
2018-06-19T02:25:54.735Z,21.67
2018-06-19T02:28:23.103Z,21.23
2018-06-19T02:30:51.453Z,20.87
2018-06-19T02:33:20.696Z,22.70
2018-06-19T02:35:49.073Z,23.00
2018-06-19T02:38:17.422Z,23.40
2018-06-19T02:40:46.721Z,20.67
2018-06-19T02:43:15.071Z,21.00
2018-06-19T02:45:44.215Z,23.20
2018-06-19T02:48:12.564Z,21.63
2018-06-19T02:50:41.798Z,20.30
2018-06-19T02:53:10.194Z,21.20
2018-06-19T02:55:38.650Z,20.97
2018-06-19T02:58:07.133Z,19.67
2018-06-19T03:00:35.798Z,19.93
2018-06-19T03:03:04.987Z,19.87
2018-06-19T03:05:34.156Z,19.90
2018-06-19T03:08:02.594Z,18.90
2018-06-19T03:10:30.976Z,18.83
2018-06-19T03:12:59.471Z,18.90
2018-06-19T03:15:27.832Z,18.67
2018-06-19T03:17:56.326Z,17.37
2018-06-19T03:20:24.730Z,17.47
2018-06-19T03:22:53.282Z,18.07
2018-06-19T03:25:21.658Z,18.77
2018-06-19T03:27:50.035Z,17.87
2018-06-19T03:30:18.414Z,17.43
2018-06-19T03:32:46.756Z,18.83
2018-06-19T03:35:15.179Z,17.77
2018-06-19T03:37:43.538Z,18.73
2018-06-19T03:40:11.890Z,17.37
2018-06-19T03:42:40.421Z,17.40
2018-06-19T03:45:08.773Z,18.27
2018-06-19T03:47:38.309Z,17.23
2018-06-19T03:50:06.674Z,17.90
2018-06-19T03:52:35.230Z,17.47
2018-06-19T03:55:03.714Z,17.80
2018-06-19T03:57:32.400Z,16.43
2018-06-19T04:00:01.059Z,18.70
2018-06-19T04:02:29.504Z,17.00
2018-06-19T04:04:58.377Z,16.63
2018-06-19T04:07:27.924Z,17.20
2018-06-19T04:09:56.673Z,17.37
2018-06-19T04:12:25.275Z,17.77
2018-06-19T04:14:53.778Z,15.73
2018-06-19T04:17:22.244Z,15.53
2018-06-19T04:19:51.563Z,16.30
2018-06-19T04:22:19.973Z,15.10
2018-06-19T04:24:48.505Z,15.80
2018-06-19T04:27:17.358Z,15.80
2018-06-19T04:29:46.585Z,15.53
2018-06-19T04:32:15.130Z,15.63
2018-06-19T04:34:43.817Z,16.93
2018-06-19T04:37:13.252Z,15.47
2018-06-19T04:39:42.479Z,15.30
2018-06-19T04:42:11.822Z,15.50
2018-06-19T04:44:40.349Z,15.93
2018-06-19T04:47:08.931Z,15.17
2018-06-19T04:49:37.677Z,15.90
2018-06-19T04:52:06.361Z,14.93
2018-06-19T04:54:34.792Z,16.27
2018-06-19T04:57:03.282Z,17.13
2018-06-19T04:59:31.958Z,15.03
2018-06-19T05:02:00.309Z,15.37
2018-06-19T05:04:28.850Z,15.30
2018-06-19T05:06:57.581Z,15.70
2018-06-19T05:09:26.074Z,14.90
2018-06-19T05:11:55.258Z,15.27
2018-06-19T05:14:24.777Z,14.43
2018-06-19T05:16:53.209Z,14.47
2018-06-19T05:19:21.856Z,14.97
2018-06-19T05:21:50.387Z,14.67
2018-06-19T05:24:18.720Z,13.83
2018-06-19T05:26:47.156Z,13.30
2018-06-19T05:29:16.305Z,13.70
2018-06-19T05:31:44.808Z,13.27
2018-06-19T05:34:13.327Z,14.03
2018-06-19T05:36:42.275Z,12.50
2018-06-19T05:39:11.038Z,12.00
2018-06-19T05:41:39.461Z,12.43
2018-06-19T05:44:07.884Z,11.50
2018-06-19T05:46:37.002Z,10.87
2018-06-19T05:49:05.585Z,10.57
2018-06-19T05:51:34.149Z,10.77
2018-06-19T05:54:02.855Z,9.53
2018-06-19T05:56:31.388Z,9.97
2018-06-19T05:59:00.787Z,10.57
2018-06-19T06:01:29.516Z,10.30
2018-06-19T06:03:58.775Z,9.87
2018-06-19T06:06:27.446Z,10.33
2018-06-19T06:08:55.937Z,9.30
2018-06-19T06:11:24.284Z,8.50
2018-06-19T06:13:52.771Z,8.80
2018-06-19T06:16:21.580Z,8.20
2018-06-19T06:18:49.902Z,8.93
2018-06-19T06:21:19.130Z,8.47
2018-06-19T06:23:47.559Z,8.17
2018-06-19T06:26:15.993Z,7.97
2018-06-19T06:28:44.475Z,8.17
2018-06-19T06:31:13.000Z,7.03
2018-06-19T06:33:43.368Z,6.57
2018-06-19T06:36:12.486Z,6.47
2018-06-19T06:38:40.867Z,7.17
2018-06-19T06:41:09.194Z,6.27
2018-06-19T06:43:38.671Z,5.40
2018-06-19T06:46:07.004Z,5.80
2018-06-19T06:48:35.386Z,5.63
2018-06-19T06:51:03.762Z,5.37
2018-06-19T06:53:32.126Z,5.60
2018-06-19T06:56:01.268Z,5.20
2018-06-19T06:58:29.588Z,5.20
2018-06-19T07:00:57.934Z,4.83
2018-06-19T07:03:26.357Z,5.67
2018-06-19T07:05:55.493Z,5.33
2018-06-19T07:08:23.858Z,5.23
2018-06-19T07:10:52.313Z,4.47
2018-06-19T07:13:21.416Z,4.37
2018-06-19T07:15:50.573Z,4.80
2018-06-19T07:18:18.938Z,4.37
2018-06-19T07:20:47.384Z,4.03
2018-06-19T07:23:15.800Z,4.90
2018-06-19T07:25:44.146Z,4.50
2018-06-19T07:28:12.512Z,4.90
2018-06-19T07:30:41.675Z,4.63
2018-06-19T07:33:10.050Z,5.00
2018-06-19T07:35:38.424Z,4.57
2018-06-19T07:38:06.898Z,4.30
2018-06-19T07:40:35.221Z,4.23
2018-06-19T07:43:04.327Z,5.00
2018-06-19T07:45:34.284Z,4.47
2018-06-19T07:48:02.674Z,4.37
2018-06-19T07:50:31.126Z,4.57
2018-06-19T07:52:59.575Z,5.10
2018-06-19T07:55:28.753Z,4.77
2018-06-19T07:57:57.185Z,5.17
2018-06-19T08:00:25.589Z,5.00
2018-06-19T08:02:53.937Z,4.83
2018-06-19T08:05:22.265Z,4.80
2018-06-19T08:07:50.642Z,5.57
2018-06-19T08:10:20.015Z,5.03
2018-06-19T08:12:48.413Z,4.93
2018-06-19T08:15:16.755Z,5.20
2018-06-19T08:17:45.123Z,5.10
2018-06-19T08:20:14.234Z,5.10
2018-06-19T08:22:42.584Z,5.30
2018-06-19T08:25:11.726Z,5.87
2018-06-19T08:27:40.059Z,5.50
2018-06-19T08:30:08.404Z,5.30
2018-06-19T08:32:36.775Z,6.63
2018-06-19T08:35:05.143Z,5.10
2018-06-19T08:37:33.506Z,6.27
2018-06-19T08:40:01.854Z,5.60
2018-06-19T08:42:30.971Z,5.80
2018-06-19T08:44:59.314Z,6.37
2018-06-19T08:47:27.691Z,6.10
2018-06-19T08:49:56.127Z,5.93
2018-06-19T08:52:24.522Z,6.10
2018-06-19T08:54:52.877Z,6.47
2018-06-19T08:57:21.258Z,6.62
2018-06-19T08:59:49.705Z,7.15
2018-06-19T09:02:18.182Z,5.97
2018-06-19T09:04:46.557Z,6.70
2018-06-19T09:07:15.678Z,6.32
2018-06-19T09:09:44.956Z,6.47
2018-06-19T09:12:13.303Z,6.12
2018-06-19T09:14:41.649Z,6.78
2018-06-19T09:17:10.003Z,6.30
2018-06-19T09:19:39.169Z,6.55
2018-06-19T09:22:07.639Z,7.12
2018-06-19T09:24:35.974Z,6.22
2018-06-19T09:27:05.196Z,6.78
2018-06-19T09:29:33.618Z,6.50
2018-06-19T09:32:02.168Z,6.47
2018-06-19T09:34:30.514Z,7.60
2018-06-19T09:36:59.622Z,7.07
2018-06-19T09:39:28.020Z,7.62
2018-06-19T09:41:56.390Z,7.00
2018-06-19T09:44:24.780Z,8.27
2018-06-19T09:46:53.115Z,8.50
2018-06-19T09:49:22.255Z,7.62
2018-06-19T09:51:50.610Z,8.40
2018-06-19T09:54:18.975Z,8.02
2018-06-19T09:56:48.203Z,7.90
2018-06-19T09:59:16.620Z,7.97
2018-06-19T10:01:44.981Z,8.18
2018-06-19T10:04:13.342Z,8.50
2018-06-19T10:06:41.667Z,9.50
2018-06-19T10:09:10.100Z,9.80
2018-06-19T10:11:38.447Z,8.98
2018-06-19T10:14:07.660Z,10.73
2018-06-19T10:16:36.253Z,9.48
2018-06-19T10:19:04.604Z,9.63
2018-06-19T10:21:33.737Z,10.52
2018-06-19T10:24:02.129Z,10.98
2018-06-19T10:26:31.260Z,11.27
2018-06-19T10:28:59.637Z,11.32
2018-06-19T10:31:28.078Z,11.35
2018-06-19T10:33:56.458Z,11.50
2018-06-19T10:36:24.797Z,13.10
2018-06-19T10:38:54.252Z,14.98
2018-06-19T10:41:22.591Z,14.73
2018-06-19T10:43:50.954Z,14.13
2018-06-19T10:46:20.077Z,15.50
2018-06-19T10:48:48.542Z,16.37
2018-06-19T10:51:16.904Z,16.77
2018-06-19T10:53:45.309Z,16.33
2018-06-19T10:56:13.710Z,18.73
2018-06-19T10:58:42.066Z,17.87
2018-06-19T11:01:10.424Z,20.25
2018-06-19T11:03:38.813Z,17.35
2018-06-19T11:06:07.186Z,17.10
2018-06-19T11:08:36.313Z,17.70
2018-06-19T11:11:04.708Z,18.25
2018-06-19T11:13:33.101Z,16.12
2018-06-19T11:16:01.481Z,15.35
2018-06-19T11:18:29.862Z,16.23
2018-06-19T11:20:58.256Z,15.35
2018-06-19T11:23:26.629Z,13.20
2018-06-19T11:25:55.082Z,15.30
2018-06-19T11:28:23.472Z,15.15
2018-06-19T11:30:51.817Z,15.98
2018-06-19T11:33:20.182Z,12.48
2018-06-19T11:35:49.302Z,11.90
2018-06-19T11:38:17.665Z,12.77
2018-06-19T11:40:46.024Z,12.10
2018-06-19T11:43:14.673Z,13.18
2018-06-19T11:45:43.056Z,13.00
2018-06-19T11:48:11.535Z,12.68
2018-06-19T11:50:39.921Z,11.27
2018-06-19T11:53:08.289Z,10.27
2018-06-19T11:55:36.821Z,9.32
2018-06-19T11:58:05.198Z,8.48
2018-06-19T12:00:34.450Z,8.65
2018-06-19T12:03:02.829Z,7.78
2018-06-19T12:05:31.183Z,8.10
2018-06-19T12:08:00.501Z,8.20
2018-06-19T12:10:28.843Z,8.90
2018-06-19T12:12:57.951Z,8.13
2018-06-19T12:15:27.547Z,8.40
2018-06-19T12:17:56.596Z,8.57
2018-06-19T12:20:25.958Z,8.50
2018-06-19T12:22:54.567Z,9.55
2018-06-19T12:25:22.974Z,10.30
2018-06-19T12:27:51.841Z,10.50
2018-06-19T12:30:20.215Z,10.55
2018-06-19T12:32:48.603Z,11.80
2018-06-19T12:35:16.984Z,11.50
2018-06-19T12:37:45.344Z,9.82
2018-06-19T12:40:13.735Z,11.00
2018-06-19T12:42:42.302Z,9.27
2018-06-19T12:45:11.492Z,9.30
2018-06-19T12:47:40.718Z,9.23
2018-06-19T12:53:21.949Z,11.90
2018-06-19T12:58:53.241Z,12.00
2018-06-19T13:01:22.417Z,12.98
2018-06-19T13:04:02.716Z,13.18
2018-06-19T13:06:31.836Z,12.07
2018-06-19T13:09:00.215Z,12.55
2018-06-19T13:11:28.586Z,12.73
2018-06-19T13:20:16.654Z,12.90
2018-06-19T13:22:45.043Z,15.23
2018-06-19T13:25:13.417Z,13.95
2018-06-19T13:27:41.925Z,14.35
2018-06-19T13:30:22.097Z,13.13
2018-06-19T13:32:50.458Z,12.30
2018-06-19T13:35:18.852Z,12.43
2018-06-19T13:37:47.218Z,12.93
2018-06-19T13:43:34.033Z,13.67
2018-06-19T13:46:02.398Z,11.32
2018-06-19T13:48:30.778Z,12.35
2018-06-19T13:50:59.203Z,11.07
2018-06-19T13:53:27.625Z,11.43
2018-06-19T13:56:08.541Z,12.65
2018-06-19T13:58:36.900Z,13.18
2018-06-19T14:01:05.825Z,13.15
2018-06-19T14:03:34.154Z,11.38
2018-06-19T14:06:02.901Z,12.43
2018-06-19T14:08:31.238Z,13.80
2018-06-19T14:14:18.895Z,13.67
2018-06-19T14:16:47.345Z,13.77
2018-06-19T14:19:15.774Z,12.27
2018-06-19T14:21:44.957Z,13.52
2018-06-19T14:24:13.303Z,13.40
2018-06-19T14:26:42.442Z,13.98
2018-06-19T14:29:10.803Z,13.90
2018-06-19T14:31:39.210Z,13.43
2018-06-19T14:34:07.707Z,13.55
2018-06-19T14:36:36.057Z,12.07
2018-06-19T14:39:05.582Z,14.07
2018-06-19T14:41:35.702Z,14.45
2018-06-19T14:44:04.078Z,15.07
2018-06-19T14:46:32.431Z,13.00
2018-06-19T14:49:00.802Z,14.10
2018-06-19T14:54:04.018Z,13.10
2018-06-19T14:56:32.426Z,12.05
2018-06-19T14:59:00.782Z,11.43
2018-06-19T15:01:29.189Z,12.52
2018-06-19T15:03:58.838Z,12.93
2018-06-19T15:06:27.254Z,11.93
2018-06-19T15:08:55.671Z,13.35
2018-06-19T15:11:24.134Z,12.85
2018-06-19T15:13:52.699Z,11.50
2018-06-19T15:16:21.066Z,10.43
2018-06-19T15:18:49.445Z,11.85
2018-06-19T15:21:21.025Z,10.90
2018-06-19T15:23:49.505Z,10.00
2018-06-19T15:26:18.008Z,10.88
2018-06-19T15:28:46.379Z,10.40
2018-06-19T15:31:14.860Z,9.85
2018-06-19T15:33:43.243Z,10.15
2018-06-19T15:36:11.714Z,11.10
2018-06-19T15:38:40.206Z,9.45
2018-06-19T15:41:08.572Z,9.88
2018-06-19T15:43:36.941Z,10.38
2018-06-19T15:46:05.320Z,10.15
2018-06-19T15:48:33.674Z,9.70
2018-06-19T15:51:02.185Z,9.45
2018-06-19T15:53:30.606Z,8.68
2018-06-19T15:55:59.017Z,8.98
2018-06-19T15:58:27.362Z,8.55
2018-06-19T16:00:56.361Z,9.00
2018-06-19T16:03:24.717Z,10.77
2018-06-19T16:05:53.095Z,9.80
2018-06-19T16:08:21.613Z,10.13
2018-06-19T16:10:50.100Z,10.32
2018-06-19T16:13:19.254Z,11.20
2018-06-19T16:15:47.729Z,10.50
2018-06-19T16:18:16.099Z,9.82
2018-06-19T16:20:44.457Z,9.43
2018-06-19T16:23:12.834Z,11.38
2018-06-19T16:25:41.878Z,9.57
2018-06-19T16:28:11.121Z,10.60
2018-06-19T16:30:39.903Z,10.00
2018-06-19T16:33:08.250Z,9.90
2018-06-19T16:35:36.711Z,10.65
2018-06-19T16:38:05.082Z,11.35
2018-06-19T16:40:33.588Z,11.63
2018-06-19T16:43:02.035Z,11.68
2018-06-19T16:45:30.526Z,11.50
2018-06-19T16:47:58.905Z,11.18
2018-06-19T16:50:27.282Z,10.15
2018-06-19T16:52:55.681Z,10.00
2018-06-19T16:55:24.157Z,10.57
2018-06-19T16:57:53.414Z,12.43
2018-06-19T17:00:23.242Z,11.85
2018-06-19T17:02:51.642Z,14.80
2018-06-19T17:05:20.050Z,12.80
2018-06-19T17:07:48.481Z,11.98
2018-06-19T17:10:17.711Z,12.02
2018-06-19T17:12:46.073Z,12.73
2018-06-19T17:15:14.454Z,12.20
2018-06-19T17:17:42.821Z,12.73
2018-06-19T17:20:11.280Z,13.43
2018-06-19T17:22:40.425Z,13.50
2018-06-19T17:25:08.903Z,12.77
2018-06-19T17:27:37.393Z,14.50
2018-06-19T17:30:06.039Z,13.32
2018-06-19T17:32:34.471Z,15.77
2018-06-19T17:35:02.863Z,13.30
2018-06-19T17:37:31.483Z,14.25
2018-06-19T17:39:59.869Z,14.25
2018-06-19T17:42:28.266Z,14.35
2018-06-19T17:44:57.281Z,14.68
2018-06-19T17:47:25.663Z,13.45
2018-06-19T17:49:54.040Z,12.82
2018-06-19T17:52:22.476Z,12.48
2018-06-19T17:54:50.826Z,28.35
2018-06-19T17:57:19.384Z,14.38
2018-06-19T17:59:48.205Z,13.50
2018-06-19T18:02:17.338Z,18.00
2018-06-19T18:04:45.693Z,16.90
2018-06-19T18:07:14.311Z,13.73
2018-06-19T18:09:43.722Z,13.32
2018-06-19T18:12:12.102Z,16.02
2018-06-19T18:14:40.501Z,14.70
2018-06-19T18:17:08.873Z,14.50
2018-06-19T18:19:37.356Z,15.20
2018-06-19T18:22:05.745Z,13.93
2018-06-19T18:24:34.918Z,15.30
2018-06-19T18:27:03.350Z,15.45
2018-06-19T18:29:32.493Z,14.97
2018-06-19T18:32:00.859Z,15.70
2018-06-19T18:34:29.230Z,18.47
2018-06-19T18:36:57.612Z,19.50
2018-06-19T18:39:26.033Z,19.07
2018-06-19T18:41:54.681Z,20.77
2018-06-19T18:44:23.934Z,19.67
2018-06-19T18:46:52.464Z,20.90
2018-06-19T18:49:20.750Z,21.77
2018-06-19T18:51:49.160Z,22.10
2018-06-19T18:54:17.534Z,21.30
2018-06-19T18:56:45.922Z,21.63
2018-06-19T18:59:15.291Z,19.80
2018-06-19T19:01:43.669Z,20.47
2018-06-19T19:04:12.031Z,21.17
2018-06-19T19:06:40.393Z,19.50
2018-06-19T19:09:09.540Z,20.63
2018-06-19T19:11:37.919Z,21.07
2018-06-19T19:14:06.365Z,20.23
2018-06-19T19:19:33.484Z,23.03
2018-06-19T19:22:01.844Z,20.30
2018-06-19T19:24:30.229Z,19.10
2018-06-19T19:26:58.623Z,19.70
2018-06-19T19:32:19.550Z,21.70
2018-06-19T19:34:47.915Z,19.07
2018-06-19T19:40:11.202Z,20.93
2018-06-19T19:42:39.552Z,19.07
2018-06-19T19:45:07.927Z,19.10
2018-06-19T19:50:36.844Z,20.40
2018-06-19T19:53:05.181Z,17.17
2018-06-19T19:55:33.604Z,17.80
2018-06-19T20:00:56.905Z,19.27
2018-06-19T20:03:25.304Z,16.30
2018-06-19T20:05:53.908Z,17.10
2018-06-19T20:08:22.355Z,16.00
2018-06-19T20:10:50.721Z,16.23
2018-06-19T20:13:19.119Z,15.23
2018-06-19T20:15:47.518Z,14.57
2018-06-19T20:18:15.980Z,15.37
2018-06-19T20:20:44.418Z,16.00
2018-06-19T20:23:14.647Z,14.60
2018-06-19T20:25:42.987Z,15.07
2018-06-19T20:28:11.440Z,15.97
2018-06-19T20:30:39.817Z,17.27
2018-06-19T20:33:08.269Z,16.40
2018-06-19T20:35:36.707Z,16.83
2018-06-19T20:38:06.198Z,16.93
2018-06-19T20:40:34.576Z,16.33
2018-06-19T20:43:02.938Z,18.63
2018-06-19T20:45:31.341Z,18.97
2018-06-19T20:47:59.787Z,19.10
2018-06-19T20:50:28.403Z,20.57
2018-06-19T20:52:56.870Z,18.63
2018-06-19T20:55:25.270Z,19.03
2018-06-19T20:57:53.637Z,19.37
2018-06-19T21:00:22.036Z,18.80
2018-06-19T21:02:50.507Z,20.27
2018-06-19T21:05:18.860Z,19.00
2018-06-19T21:07:47.275Z,19.70
2018-06-19T21:10:15.593Z,18.63
2018-06-19T21:12:44.096Z,19.63
2018-06-19T21:15:12.481Z,19.40
2018-06-19T21:17:40.974Z,19.37
2018-06-19T21:20:09.368Z,19.03
2018-06-19T21:22:37.709Z,20.20
2018-06-19T21:25:06.065Z,20.07
2018-06-19T21:27:35.195Z,20.40
2018-06-19T21:30:03.601Z,19.30
2018-06-19T21:32:32.661Z,19.27
2018-06-19T21:35:01.013Z,19.27
2018-06-19T21:37:30.139Z,19.47
2018-06-19T21:39:59.350Z,19.63
2018-06-19T21:42:27.710Z,19.00
2018-06-19T21:44:56.064Z,20.53
2018-06-19T21:47:24.604Z,20.57
2018-06-19T21:49:52.945Z,20.17
2018-06-19T21:52:21.330Z,20.47
2018-06-19T21:54:50.633Z,19.17
2018-06-19T21:57:19.026Z,18.47
2018-06-19T21:59:47.395Z,17.90
2018-06-19T22:02:15.746Z,17.27
2018-06-19T22:04:44.943Z,19.60
2018-06-19T22:07:14.062Z,19.80
2018-06-19T22:09:42.418Z,17.73
2018-06-19T22:12:11.582Z,20.07
2018-06-19T22:14:40.154Z,20.93
2018-06-19T22:17:08.536Z,18.57
2018-06-19T22:19:36.978Z,18.57
2018-06-19T22:22:05.598Z,19.37
2018-06-19T22:24:34.028Z,18.07
2018-06-19T22:27:02.448Z,18.53
2018-06-19T22:29:30.855Z,18.37
2018-06-19T22:31:59.201Z,17.03
2018-06-19T22:34:27.561Z,17.73
2018-06-19T22:36:55.933Z,16.53
2018-06-19T22:39:25.081Z,16.90
2018-06-19T22:41:53.451Z,16.23
2018-06-19T22:44:21.907Z,16.23
2018-06-19T22:46:50.263Z,16.73
2018-06-19T22:49:18.631Z,16.03
2018-06-19T22:51:47.100Z,17.23
2018-06-19T22:54:15.538Z,17.93
2018-06-19T22:56:43.890Z,16.53
2018-06-19T22:59:13.041Z,17.43
2018-06-19T23:01:41.513Z,16.03
2018-06-19T23:04:09.907Z,15.50
2018-06-19T23:06:38.329Z,16.27
2018-06-19T23:09:06.735Z,15.63
2018-06-19T23:11:36.009Z,15.07
2018-06-19T23:14:05.175Z,15.70
2018-06-19T23:16:33.558Z,13.97
2018-06-19T23:19:01.914Z,14.33
2018-06-19T23:21:30.259Z,14.27
2018-06-19T23:23:58.753Z,14.73
2018-06-19T23:26:27.105Z,14.60
2018-06-19T23:28:55.459Z,13.67
2018-06-19T23:31:24.154Z,11.70
2018-06-19T23:33:52.699Z,13.37
2018-06-19T23:36:21.033Z,12.43
2018-06-19T23:38:49.663Z,12.30
2018-06-19T23:41:18.128Z,11.43
2018-06-19T23:43:47.217Z,11.70
2018-06-19T23:46:15.571Z,13.00
2018-06-19T23:48:43.975Z,11.20
2018-06-19T23:51:12.458Z,11.37
2018-06-19T23:53:41.149Z,12.03
2018-06-19T23:56:09.495Z,12.43
2018-06-19T23:58:37.938Z,11.13
